South Wellfleet, Massachusetts
Current Conditions -  °F | °C
As of 8:35 AM on Wednesday 22 Oct 2014 (Local Time) from KPVC Reporting Station
Overcast Overcast  
Wind Chill: 57°   Ceiling: 600
Heat Index: 57°   Visibility: 10mi
Dew Point: 54°   Wind: 21mph
Humidity: 88%   Direction: 50°NE
Pressure: 29.96"   Gusts: 29mph
Location:  41.92°N, 70°W
Report Text: KPVC 221235Z 05018G25KT 10SM OVC006 14/12 A2996 RMK AO1
Loading
Personal Weather Stations






























Interactive Weather Map
Tropical Storm Tracking
New forecast layout! Learn more

10-Day Weather Forecast

Advertisements
Track Severe Weather on mobile